createdAt,value
2023-04-02T00:01:28.976Z,70.10
2023-04-02T00:04:03.350Z,70.10
2023-04-02T00:06:44.767Z,70.00
2023-04-02T00:09:14.841Z,70.00
2023-04-02T00:11:49.029Z,70.10
2023-04-02T00:14:28.907Z,70.10
2023-04-02T00:16:59.601Z,70.20
2023-04-02T00:19:43.206Z,70.10
2023-04-02T00:22:19.357Z,70.10
2023-04-02T00:24:49.056Z,70.20
2023-04-02T00:27:20.956Z,70.20
2023-04-02T00:29:54.366Z,70.10
2023-04-02T00:32:32.989Z,70.20
2023-04-02T00:35:13.040Z,70.30
2023-04-02T00:37:42.218Z,70.20
2023-04-02T00:40:44.663Z,70.20
2023-04-02T00:43:22.796Z,70.20
2023-04-02T00:46:01.269Z,70.20
2023-04-02T00:48:33.279Z,70.30
2023-04-02T00:51:32.253Z,70.20
2023-04-02T00:54:05.918Z,70.40
2023-04-02T00:56:43.932Z,70.20
2023-04-02T00:59:31.860Z,70.30
2023-04-02T01:02:18.693Z,70.30
2023-04-02T01:05:19.871Z,70.40
2023-04-02T01:08:02.149Z,70.40
2023-04-02T01:10:52.012Z,70.30
2023-04-02T01:13:41.987Z,70.50
2023-04-02T01:16:30.725Z,70.40
2023-04-02T01:19:28.921Z,70.50
2023-04-02T01:22:18.172Z,70.60
2023-04-02T01:24:46.123Z,70.40
2023-04-02T01:27:34.084Z,70.30
2023-04-02T01:30:07.248Z,70.40
2023-04-02T01:32:35.518Z,70.30
2023-04-02T01:35:02.738Z,70.20
2023-04-02T01:37:56.150Z,70.30
2023-04-02T01:40:51.916Z,70.40
2023-04-02T01:43:41.924Z,70.40
2023-04-02T01:46:32.249Z,70.40
2023-04-02T01:49:15.818Z,70.50
2023-04-02T01:51:51.222Z,70.40
2023-04-02T01:54:23.314Z,70.40
2023-04-02T01:56:53.784Z,70.40
2023-04-02T01:59:23.004Z,70.40
2023-04-02T02:02:06.129Z,70.40
2023-04-02T02:04:36.464Z,70.40
2023-04-02T02:07:19.215Z,70.40
2023-04-02T02:09:50.957Z,70.50
2023-04-02T02:12:21.318Z,70.50
2023-04-02T02:14:52.542Z,70.50
2023-04-02T02:17:34.814Z,70.50
2023-04-02T02:20:06.585Z,70.60
2023-04-02T02:22:40.482Z,70.50
2023-04-02T02:25:16.426Z,70.50
2023-04-02T02:28:29.219Z,70.60
2023-04-02T02:31:18.530Z,71.40
2023-04-02T02:33:52.693Z,70.50
2023-04-02T02:36:40.051Z,70.40
2023-04-02T02:39:23.795Z,70.60
2023-04-02T02:42:18.073Z,70.70
2023-04-02T02:44:54.879Z,70.60
2023-04-02T02:47:34.629Z,70.70
2023-04-02T02:50:11.490Z,70.70
2023-04-02T02:52:52.645Z,70.60
2023-04-02T02:55:27.408Z,70.70
2023-04-02T02:58:14.384Z,70.70
2023-04-02T03:00:51.770Z,70.70
2023-04-02T03:03:30.126Z,71.20
2023-04-02T03:06:16.708Z,70.70
2023-04-02T03:09:39.925Z,70.80
2023-04-02T03:12:42.131Z,70.80
2023-04-02T03:15:41.071Z,70.80
2023-04-02T03:18:28.878Z,71.00
2023-04-02T03:21:41.559Z,70.70
2023-04-02T03:24:44.130Z,70.80
2023-04-02T03:27:33.897Z,70.80
2023-04-02T03:30:24.289Z,71.20
2023-04-02T03:33:02.131Z,70.80
2023-04-02T03:35:36.212Z,70.80
2023-04-02T03:38:30.979Z,70.90
2023-04-02T03:41:17.795Z,71.00
2023-04-02T03:43:56.274Z,70.90
2023-04-02T03:46:44.233Z,70.80
2023-04-02T03:49:46.430Z,70.80
2023-04-02T03:52:42.777Z,71.10
2023-04-02T03:55:21.612Z,70.90
2023-04-02T03:58:31.314Z,70.70
2023-04-02T04:01:12.384Z,70.80
2023-04-02T04:03:46.547Z,70.60
2023-04-02T04:06:28.771Z,70.60
2023-04-02T04:08:58.388Z,70.60
2023-04-02T04:11:33.461Z,70.60
2023-04-02T04:14:19.180Z,70.70
2023-04-02T04:17:16.181Z,70.90
2023-04-02T04:19:58.078Z,70.80
2023-04-02T04:22:33.770Z,70.80
2023-04-02T04:25:33.860Z,70.80
2023-04-02T04:28:29.139Z,70.90
2023-04-02T04:31:18.222Z,70.90
2023-04-02T04:34:04.805Z,70.80
2023-04-02T04:37:07.598Z,70.90
2023-04-02T04:40:01.003Z,70.80
2023-04-02T04:42:39.605Z,70.90
2023-04-02T04:45:41.721Z,70.80
2023-04-02T04:48:20.511Z,70.90
2023-04-02T04:51:00.852Z,70.90
2023-04-02T04:53:30.979Z,70.80
2023-04-02T04:56:18.451Z,70.90
2023-04-02T04:59:13.710Z,70.90
2023-04-02T05:02:11.565Z,70.80
2023-04-02T05:04:48.119Z,71.00
2023-04-02T05:07:30.126Z,70.80
2023-04-02T05:10:27.395Z,70.90
2023-04-02T05:13:18.577Z,71.20
2023-04-02T05:16:43.439Z,71.10
2023-04-02T05:19:33.642Z,71.30
2023-04-02T05:22:20.235Z,71.00
2023-04-02T05:24:55.609Z,70.90
2023-04-02T05:27:59.200Z,70.90
2023-04-02T05:31:17.395Z,71.40
2023-04-02T05:33:49.836Z,71.30
2023-04-02T05:36:30.260Z,71.00
2023-04-02T05:39:02.550Z,71.20
2023-04-02T05:41:47.859Z,71.10
2023-04-02T05:44:42.060Z,71.30
2023-04-02T05:47:40.882Z,71.10
2023-04-02T05:50:30.324Z,71.20
2023-04-02T05:53:15.982Z,71.60
2023-04-02T05:56:05.190Z,71.30
2023-04-02T05:58:48.295Z,71.40
2023-04-02T06:02:19.861Z,71.50
2023-04-02T06:05:02.987Z,71.80
2023-04-02T06:07:46.466Z,71.40
2023-04-02T06:11:08.335Z,71.60
2023-04-02T06:13:39.636Z,71.60
2023-04-02T06:16:16.478Z,71.20
2023-04-02T06:18:47.160Z,71.10
2023-04-02T06:21:20.394Z,70.80
2023-04-02T06:24:01.111Z,70.60
2023-04-02T06:26:40.923Z,70.20
2023-04-02T06:29:14.121Z,70.10
2023-04-02T06:31:57.077Z,70.10
2023-04-02T06:34:33.691Z,70.20
2023-04-02T06:37:22.197Z,70.20
2023-04-02T06:39:54.142Z,70.20
2023-04-02T06:42:31.364Z,70.20
2023-04-02T06:45:30.351Z,70.40
2023-04-02T06:48:19.658Z,70.40
2023-04-02T06:51:10.264Z,70.40
2023-04-02T06:53:51.606Z,70.50
2023-04-02T06:56:44.616Z,70.40
2023-04-02T06:59:16.297Z,70.60
2023-04-02T07:01:57.316Z,70.60
2023-04-02T07:04:25.503Z,70.80
2023-04-02T07:06:57.494Z,70.70
2023-04-02T07:09:27.622Z,70.70
2023-04-02T07:11:57.963Z,70.70
2023-04-02T07:14:24.859Z,70.70
2023-04-02T07:16:52.288Z,70.90
2023-04-02T07:19:22.794Z,71.10
2023-04-02T07:21:53.753Z,71.20
2023-04-02T07:24:22.198Z,71.30
2023-04-02T07:26:49.113Z,71.30
2023-04-02T07:29:21.922Z,71.40
2023-04-02T07:31:52.914Z,71.50
2023-04-02T07:34:22.291Z,71.50
2023-04-02T07:36:53.839Z,71.30
2023-04-02T07:39:20.774Z,71.10
2023-04-02T07:41:58.802Z,71.10
2023-04-02T07:44:25.964Z,71.00
2023-04-02T07:46:53.391Z,70.90
2023-04-02T07:49:22.968Z,70.80
2023-04-02T07:51:52.866Z,70.80
2023-04-02T07:54:19.722Z,70.70
2023-04-02T07:56:46.662Z,70.70
2023-04-02T07:59:13.545Z,70.60
2023-04-02T08:01:43.745Z,70.70
2023-04-02T08:04:22.308Z,70.70
2023-04-02T08:06:50.345Z,70.80
2023-04-02T08:09:24.202Z,70.80
2023-04-02T08:11:53.549Z,70.80
2023-04-02T08:14:22.544Z,70.90
2023-04-02T08:16:55.577Z,70.90
2023-04-02T08:19:28.097Z,70.90
2023-04-02T08:21:57.392Z,71.10
2023-04-02T08:24:26.953Z,71.20
2023-04-02T08:26:59.089Z,71.20
2023-04-02T08:29:32.184Z,71.00
2023-04-02T08:31:59.906Z,71.00
2023-04-02T08:34:27.448Z,70.90
2023-04-02T08:36:58.613Z,71.00
2023-04-02T08:39:29.360Z,71.10
2023-04-02T08:42:04.390Z,71.10
2023-04-02T08:45:25.729Z,71.00
2023-04-02T08:47:57.277Z,71.30
2023-04-02T08:50:41.265Z,71.20
2023-04-02T08:53:19.957Z,71.50
2023-04-02T08:56:17.475Z,71.40
2023-04-02T08:58:55.988Z,71.20
2023-04-02T09:01:35.006Z,71.30
2023-04-02T09:04:14.933Z,71.30
2023-04-02T09:06:45.802Z,71.30
2023-04-02T09:09:18.584Z,71.20
2023-04-02T09:11:56.159Z,71.10
2023-04-02T09:14:38.765Z,71.10
2023-04-02T09:17:25.441Z,71.20
2023-04-02T09:20:21.170Z,71.10
2023-04-02T09:22:53.006Z,70.90
2023-04-02T09:25:27.104Z,70.90
2023-04-02T09:27:58.201Z,70.80
2023-04-02T09:30:31.489Z,70.90
2023-04-02T09:33:07.813Z,70.90
2023-04-02T09:35:50.007Z,71.00
2023-04-02T09:38:36.225Z,71.10
2023-04-02T09:41:08.269Z,71.10
2023-04-02T09:43:41.806Z,71.10
2023-04-02T09:46:25.885Z,71.10
2023-04-02T09:49:04.211Z,70.90
2023-04-02T09:51:36.872Z,71.00
2023-04-02T09:54:03.704Z,70.90
2023-04-02T09:56:36.618Z,70.80
2023-04-02T09:59:12.387Z,70.70
2023-04-02T10:01:44.808Z,70.70
2023-04-02T10:04:47.781Z,70.80
2023-04-02T10:07:45.893Z,70.80
2023-04-02T10:10:25.058Z,70.70
2023-04-02T10:13:08.035Z,70.90
2023-04-02T10:16:01.598Z,71.00
2023-04-02T10:18:46.730Z,70.80
2023-04-02T10:21:27.159Z,70.50
2023-04-02T10:23:55.654Z,70.60
2023-04-02T10:26:59.850Z,70.40
2023-04-02T10:30:05.667Z,70.40
2023-04-02T10:33:21.350Z,70.30
2023-04-02T10:36:50.356Z,70.40
2023-04-02T10:39:25.518Z,69.90
2023-04-02T10:42:12.236Z,70.10
2023-04-02T10:45:01.693Z,69.90
2023-04-02T10:47:44.719Z,70.00
2023-04-02T10:50:49.515Z,69.90
2023-04-02T10:53:46.286Z,69.70
2023-04-02T10:56:14.461Z,69.90
2023-04-02T10:59:10.035Z,69.90
2023-04-02T11:01:43.829Z,69.60
2023-04-02T11:04:31.559Z,69.80
2023-04-02T11:07:14.894Z,69.70
2023-04-02T11:09:46.993Z,69.70
2023-04-02T11:12:46.625Z,69.80
2023-04-02T11:15:20.726Z,69.80
2023-04-02T11:17:50.384Z,70.00
2023-04-02T11:20:44.353Z,70.00
2023-04-02T11:23:20.520Z,69.50
2023-04-02T11:26:14.794Z,69.80
2023-04-02T11:28:43.891Z,69.90
2023-04-02T11:31:21.708Z,69.80
2023-04-02T11:33:50.886Z,69.40
2023-04-02T11:36:54.793Z,69.60
2023-04-02T11:39:54.923Z,69.20
2023-04-02T11:42:44.504Z,69.30
2023-04-02T11:45:32.321Z,69.60
2023-04-02T11:48:16.145Z,69.60
2023-04-02T11:50:46.848Z,69.30
2023-04-02T11:53:35.863Z,69.20
2023-04-02T11:56:33.169Z,69.20
2023-04-02T11:59:39.103Z,69.00
2023-04-02T12:02:41.466Z,68.80
2023-04-02T12:05:32.002Z,68.90
2023-04-02T12:08:34.986Z,68.80
2023-04-02T12:11:06.306Z,68.70
2023-04-02T12:13:42.231Z,68.90
2023-04-02T12:16:16.777Z,68.70
2023-04-02T12:18:47.574Z,68.90
2023-04-02T12:21:23.148Z,68.90
2023-04-02T12:23:55.826Z,68.80
2023-04-02T12:26:37.835Z,69.00
2023-04-02T12:29:29.448Z,68.70
2023-04-02T12:32:04.906Z,68.30
2023-04-02T12:34:36.944Z,68.90
2023-04-02T12:37:05.741Z,68.80
2023-04-02T12:39:51.536Z,68.80
2023-04-02T12:42:42.215Z,68.60
2023-04-02T12:45:29.497Z,68.40
2023-04-02T12:48:05.277Z,68.00
2023-04-02T12:50:38.527Z,68.50
2023-04-02T12:53:21.356Z,68.30
2023-04-02T12:55:53.430Z,68.20
2023-04-02T12:58:42.774Z,68.00
2023-04-02T13:01:31.631Z,67.70
2023-04-02T13:04:13.526Z,67.50
2023-04-02T13:06:49.354Z,67.90
2023-04-02T13:09:45.062Z,68.10
2023-04-02T13:12:43.630Z,68.10
2023-04-02T13:15:29.295Z,68.20
2023-04-02T13:18:22.553Z,68.30
2023-04-02T13:21:23.568Z,68.00
2023-04-02T13:23:53.028Z,68.10
2023-04-02T13:26:27.665Z,68.40
2023-04-02T13:29:24.709Z,68.50
2023-04-02T13:31:55.938Z,68.40
2023-04-02T13:34:25.345Z,68.40
2023-04-02T13:36:53.103Z,68.40
2023-04-02T13:39:23.622Z,68.30
2023-04-02T13:41:59.154Z,68.40
2023-04-02T13:44:29.838Z,68.30
2023-04-02T13:46:58.261Z,68.30
2023-04-02T13:49:31.084Z,68.30
2023-04-02T13:52:04.193Z,68.30
2023-04-02T13:55:01.899Z,68.00
2023-04-02T13:57:31.372Z,68.00
2023-04-02T14:00:00.969Z,68.00
2023-04-02T14:02:31.360Z,68.00
2023-04-02T14:05:55.534Z,67.90
2023-04-02T14:08:47.831Z,67.60
2023-04-02T14:11:50.924Z,67.90
2023-04-02T14:14:55.670Z,67.60
2023-04-02T14:17:43.669Z,67.60
2023-04-02T14:20:25.518Z,67.70
2023-04-02T14:23:05.587Z,67.90
2023-04-02T14:25:57.762Z,67.70
2023-04-02T14:28:57.703Z,67.60
2023-04-02T14:31:42.098Z,67.70
2023-04-02T14:34:46.467Z,67.70
2023-04-02T14:37:37.092Z,67.40
2023-04-02T14:40:42.075Z,67.70
2023-04-02T14:43:24.303Z,67.50
2023-04-02T14:46:10.529Z,67.60
2023-04-02T14:49:35.232Z,67.40
2023-04-02T14:52:18.709Z,67.10
2023-04-02T14:55:13.191Z,67.40
2023-04-02T14:57:53.403Z,67.90
2023-04-02T15:00:20.885Z,67.60
2023-04-02T15:03:14.112Z,67.70
2023-04-02T15:05:53.845Z,67.60
2023-04-02T15:08:25.721Z,67.60
2023-04-02T15:11:10.499Z,67.60
2023-04-02T15:13:44.376Z,67.30
2023-04-02T15:16:16.260Z,67.30
2023-04-02T15:18:53.997Z,67.30
2023-04-02T15:21:23.227Z,67.30
2023-04-02T15:24:36.690Z,67.10
2023-04-02T15:27:42.584Z,66.70
2023-04-02T15:30:30.137Z,66.70
2023-04-02T15:33:34.162Z,67.00
2023-04-02T15:36:12.648Z,67.00
2023-04-02T15:38:59.513Z,67.10
2023-04-02T15:41:35.875Z,66.90
2023-04-02T15:44:17.137Z,67.20
2023-04-02T15:47:06.713Z,67.10
2023-04-02T15:50:08.348Z,67.10
2023-04-02T15:53:01.100Z,67.40
2023-04-02T15:55:44.136Z,67.00
2023-04-02T15:59:00.558Z,66.70
2023-04-02T16:01:35.325Z,66.40
2023-04-02T16:04:44.741Z,67.00
2023-04-02T16:07:24.777Z,66.80
2023-04-02T16:10:04.645Z,66.80
2023-04-02T16:12:36.964Z,67.10
2023-04-02T16:15:24.361Z,67.20
2023-04-02T16:18:02.948Z,66.90
2023-04-02T16:20:43.706Z,66.80
2023-04-02T16:23:18.628Z,66.70
2023-04-02T16:26:10.621Z,66.70
2023-04-02T16:28:51.288Z,66.60
2023-04-02T16:31:44.758Z,66.50
2023-04-02T16:34:27.970Z,66.80
2023-04-02T16:37:24.124Z,66.70
2023-04-02T16:40:24.045Z,66.30
2023-04-02T16:43:28.470Z,66.40
2023-04-02T16:46:10.420Z,66.20
2023-04-02T16:48:56.256Z,66.20
2023-04-02T16:51:49.946Z,66.30
2023-04-02T16:54:59.853Z,66.00
2023-04-02T16:58:16.356Z,66.00
2023-04-02T17:00:59.179Z,66.00
2023-04-02T17:03:45.269Z,65.70
2023-04-02T17:06:51.423Z,65.60
2023-04-02T17:09:44.809Z,65.60
2023-04-02T17:12:46.648Z,66.00
2023-04-02T17:15:28.436Z,65.70
2023-04-02T17:18:01.999Z,65.80
2023-04-02T17:20:32.513Z,65.60
2023-04-02T17:23:02.739Z,65.80
2023-04-02T17:25:44.137Z,65.80
2023-04-02T17:28:25.154Z,65.60
2023-04-02T17:31:02.839Z,65.40
2023-04-02T17:33:29.649Z,65.20
2023-04-02T17:36:07.092Z,65.60
2023-04-02T17:39:04.472Z,65.50
2023-04-02T17:41:55.267Z,65.60
2023-04-02T17:44:51.437Z,65.00
2023-04-02T17:47:50.912Z,64.90
2023-04-02T17:50:31.546Z,65.40
2023-04-02T17:53:12.635Z,65.40
2023-04-02T17:56:29.713Z,65.20
2023-04-02T17:59:10.481Z,64.70
2023-04-02T18:02:37.496Z,65.20
2023-04-02T18:05:25.949Z,64.50
2023-04-02T18:07:58.703Z,64.90
2023-04-02T18:10:55.077Z,65.20
2023-04-02T18:13:33.571Z,65.10
2023-04-02T18:16:06.441Z,64.90
2023-04-02T18:18:48.366Z,65.00
2023-04-02T18:21:27.698Z,64.80
2023-04-02T18:24:05.424Z,64.70
2023-04-02T18:26:50.661Z,64.80
2023-04-02T18:29:48.814Z,63.60
2023-04-02T18:32:48.821Z,64.20
2023-04-02T18:35:34.953Z,64.50
2023-04-02T18:38:44.235Z,64.90
2023-04-02T18:41:48.997Z,64.50
2023-04-02T18:44:31.315Z,64.50
2023-04-02T18:47:40.440Z,64.70
2023-04-02T18:50:36.598Z,64.20
2023-04-02T18:53:41.779Z,64.10
2023-04-02T18:56:16.044Z,64.50
2023-04-02T18:58:52.616Z,64.70
2023-04-02T19:01:39.047Z,64.50
2023-04-02T19:04:22.333Z,64.60
2023-04-02T19:07:14.530Z,64.40
2023-04-02T19:09:50.429Z,64.50
2023-04-02T19:12:23.453Z,64.60
2023-04-02T19:15:01.471Z,64.40
2023-04-02T19:17:44.600Z,64.50
2023-04-02T19:20:13.669Z,64.50
2023-04-02T19:23:11.056Z,64.70
2023-04-02T19:26:06.893Z,64.30
2023-04-02T19:29:03.713Z,64.30
2023-04-02T19:31:54.556Z,64.50
2023-04-02T19:34:53.173Z,64.20
2023-04-02T19:37:41.105Z,64.10
2023-04-02T19:40:53.632Z,64.30
2023-04-02T19:43:20.845Z,63.80
2023-04-02T19:45:53.102Z,64.50
2023-04-02T19:48:53.310Z,64.60
2023-04-02T19:51:24.328Z,63.60
2023-04-02T19:53:59.489Z,64.50
2023-04-02T19:56:33.113Z,64.40
2023-04-02T19:59:07.811Z,64.50
2023-04-02T20:01:41.343Z,64.40
2023-04-02T20:04:10.890Z,64.40
2023-04-02T20:06:42.512Z,64.30
2023-04-02T20:09:14.126Z,64.20
2023-04-02T20:11:41.089Z,64.90
2023-04-02T20:14:07.998Z,64.30
2023-04-02T20:16:36.848Z,64.20
2023-04-02T20:19:08.566Z,64.10
2023-04-02T20:21:40.548Z,64.10
2023-04-02T20:24:08.349Z,64.00
2023-04-02T20:26:36.054Z,63.90
2023-04-02T20:29:03.265Z,63.90
2023-04-02T20:31:30.594Z,63.80
2023-04-02T20:33:59.017Z,63.80
2023-04-02T20:36:28.197Z,63.80
2023-04-02T20:38:55.620Z,63.80
2023-04-02T20:41:23.051Z,63.80
2023-04-02T20:43:54.519Z,63.90
2023-04-02T20:46:26.360Z,63.80
2023-04-02T20:48:55.570Z,64.00
2023-04-02T20:51:24.447Z,64.00
2023-04-02T20:53:51.258Z,64.20
2023-04-02T20:56:20.139Z,64.20
2023-04-02T20:58:47.035Z,64.20
2023-04-02T21:01:26.374Z,64.20
2023-04-02T21:03:59.789Z,64.30
2023-04-02T21:06:41.090Z,64.30
2023-04-02T21:09:18.322Z,64.90
2023-04-02T21:11:47.423Z,64.00
2023-04-02T21:14:16.769Z,64.30
2023-04-02T21:16:43.777Z,64.30
2023-04-02T21:19:12.980Z,64.30
2023-04-02T21:21:44.445Z,64.30
2023-04-02T21:24:13.667Z,64.40
2023-04-02T21:26:46.297Z,64.40
2023-04-02T21:29:18.111Z,64.40
2023-04-02T21:31:45.573Z,64.40
2023-04-02T21:34:16.863Z,64.30
2023-04-02T21:36:52.156Z,64.30
2023-04-02T21:39:27.140Z,64.10
2023-04-02T21:41:56.372Z,64.00
2023-04-02T21:44:24.481Z,64.10
2023-04-02T21:46:54.369Z,64.10
2023-04-02T21:49:24.185Z,64.10
2023-04-02T21:51:56.108Z,64.10
2023-04-02T21:54:23.081Z,64.10
2023-04-02T21:56:50.366Z,64.10
2023-04-02T21:59:22.548Z,64.10
2023-04-02T22:01:54.769Z,64.20
2023-04-02T22:04:26.070Z,64.20
2023-04-02T22:06:53.658Z,64.20
2023-04-02T22:09:29.520Z,64.30
2023-04-02T22:12:02.249Z,64.10
2023-04-02T22:14:31.805Z,64.20
2023-04-02T22:17:01.160Z,64.20
2023-04-02T22:19:30.777Z,64.30
2023-04-02T22:21:57.664Z,64.10
2023-04-02T22:24:29.522Z,64.00
2023-04-02T22:26:58.987Z,64.10
2023-04-02T22:29:28.021Z,64.10
2023-04-02T22:31:57.047Z,64.10
2023-04-02T22:34:28.439Z,64.20
2023-04-02T22:36:55.981Z,64.10
2023-04-02T22:39:22.824Z,64.10
2023-04-02T22:41:56.812Z,64.10
2023-04-02T22:44:23.696Z,64.00
2023-04-02T22:46:50.559Z,64.10
2023-04-02T22:49:19.202Z,64.10
2023-04-02T22:51:46.468Z,64.20
2023-04-02T22:54:16.037Z,64.10
2023-04-02T22:56:47.757Z,64.00
2023-04-02T22:59:16.680Z,64.00
2023-04-02T23:01:46.081Z,63.90
2023-04-02T23:04:15.772Z,64.00
2023-04-02T23:06:42.646Z,63.90
2023-04-02T23:09:17.002Z,63.90
2023-04-02T23:11:43.936Z,64.00
2023-04-02T23:14:10.899Z,64.10
2023-04-02T23:16:37.843Z,64.10
2023-04-02T23:19:06.953Z,64.10
2023-04-02T23:21:38.178Z,64.00
2023-04-02T23:24:05.469Z,64.10
2023-04-02T23:26:32.877Z,64.20
2023-04-02T23:29:05.625Z,64.30
2023-04-02T23:31:34.758Z,64.30
2023-04-02T23:34:04.773Z,64.10
2023-04-02T23:36:35.530Z,64.20
2023-04-02T23:39:11.192Z,64.10
2023-04-02T23:41:46.652Z,64.20
2023-04-02T23:44:13.639Z,64.10
2023-04-02T23:46:47.461Z,64.20
2023-04-02T23:49:14.344Z,64.20
2023-04-02T23:51:45.755Z,64.30
2023-04-02T23:54:14.215Z,64.30
2023-04-02T23:56:41.867Z,64.30
2023-04-02T23:59:09.015Z,64.20
